Idaville, Indiana
Current Conditions -  °F | °C
As of 4:35 AM on Monday 24 Nov 2014 (Local Time) from KMCX Reporting Station
Drizzle Drizzle  
Wind Chill: 52°   Ceiling: 400
Heat Index: 52°   Visibility: 4mi
Dew Point: 51°   Wind: 9mph
Humidity: 99%   Direction: 200°SSW
Pressure: 29.15"   Gusts: NA
Location:  40.76°N, 86.65°W
Report Text: KMCX 240935Z AUTO 20008KT 4SM DZ OVC004 11/11 A2915 RMK AO2 T01090108
Loading
Personal Weather Stations






























Interactive Weather Map New forecast layout! Learn more

10-Day Weather Forecast

Advertisements
Track Severe Weather on mobile